sensor_id;sensor_type;location;lat;lon;timestamp;P1;durP1;ratioP1;P2;durP2;ratioP2
3443;SDS011;1736;52.068;6.968;2023-08-06T00:00:56;11.33;;;9.47;;
3443;SDS011;1736;52.068;6.968;2023-08-06T00:03:23;12.60;;;9.20;;
3443;SDS011;1736;52.068;6.968;2023-08-06T00:05:49;13.10;;;9.17;;
3443;SDS011;1736;52.068;6.968;2023-08-06T00:08:17;15.47;;;9.63;;
3443;SDS011;1736;52.068;6.968;2023-08-06T00:10:44;12.13;;;9.23;;
3443;SDS011;1736;52.068;6.968;2023-08-06T00:13:10;13.13;;;10.23;;
3443;SDS011;1736;52.068;6.968;2023-08-06T00:15:37;16.90;;;10.17;;
3443;SDS011;1736;52.068;6.968;2023-08-06T00:18:04;22.27;;;9.67;;
3443;SDS011;1736;52.068;6.968;2023-08-06T00:20:30;12.03;;;9.00;;
3443;SDS011;1736;52.068;6.968;2023-08-06T00:22:57;14.80;;;10.43;;
3443;SDS011;1736;52.068;6.968;2023-08-06T00:25:25;12.53;;;9.87;;
3443;SDS011;1736;52.068;6.968;2023-08-06T00:27:51;15.87;;;10.70;;
3443;SDS011;1736;52.068;6.968;2023-08-06T00:30:18;12.40;;;9.67;;
3443;SDS011;1736;52.068;6.968;2023-08-06T00:32:44;13.73;;;9.90;;
3443;SDS011;1736;52.068;6.968;2023-08-06T00:35:11;17.83;;;10.27;;
3443;SDS011;1736;52.068;6.968;2023-08-06T00:37:38;15.67;;;9.90;;
3443;SDS011;1736;52.068;6.968;2023-08-06T00:40:05;12.37;;;8.80;;
3443;SDS011;1736;52.068;6.968;2023-08-06T00:42:34;12.87;;;8.47;;
3443;SDS011;1736;52.068;6.968;2023-08-06T00:45:01;14.87;;;9.80;;
3443;SDS011;1736;52.068;6.968;2023-08-06T00:47:28;14.30;;;9.30;;
3443;SDS011;1736;52.068;6.968;2023-08-06T00:49:54;17.83;;;9.53;;
3443;SDS011;1736;52.068;6.968;2023-08-06T00:52:21;12.10;;;8.90;;
3443;SDS011;1736;52.068;6.968;2023-08-06T00:54:48;16.03;;;9.43;;
3443;SDS011;1736;52.068;6.968;2023-08-06T00:57:15;12.27;;;9.47;;
3443;SDS011;1736;52.068;6.968;2023-08-06T00:59:44;10.10;;;8.10;;
3443;SDS011;1736;52.068;6.968;2023-08-06T01:02:12;13.50;;;9.60;;
3443;SDS011;1736;52.068;6.968;2023-08-06T01:04:38;10.70;;;8.20;;
3443;SDS011;1736;52.068;6.968;2023-08-06T01:07:08;12.40;;;8.60;;
3443;SDS011;1736;52.068;6.968;2023-08-06T01:09:43;9.83;;;8.37;;
3443;SDS011;1736;52.068;6.968;2023-08-06T01:12:18;9.80;;;8.00;;
3443;SDS011;1736;52.068;6.968;2023-08-06T01:14:53;9.43;;;8.17;;
3443;SDS011;1736;52.068;6.968;2023-08-06T01:17:26;10.47;;;8.00;;
3443;SDS011;1736;52.068;6.968;2023-08-06T01:19:55;9.73;;;7.73;;
3443;SDS011;1736;52.068;6.968;2023-08-06T01:22:23;10.03;;;8.13;;
3443;SDS011;1736;52.068;6.968;2023-08-06T01:24:50;10.80;;;7.90;;
3443;SDS011;1736;52.068;6.968;2023-08-06T01:27:20;10.20;;;7.90;;
3443;SDS011;1736;52.068;6.968;2023-08-06T01:29:54;10.23;;;8.53;;
3443;SDS011;1736;52.068;6.968;2023-08-06T01:32:29;11.73;;;8.30;;
3443;SDS011;1736;52.068;6.968;2023-08-06T01:34:58;11.00;;;7.80;;
3443;SDS011;1736;52.068;6.968;2023-08-06T01:37:27;10.60;;;7.63;;
3443;SDS011;1736;52.068;6.968;2023-08-06T01:39:55;9.87;;;7.60;;
3443;SDS011;1736;52.068;6.968;2023-08-06T01:42:22;8.83;;;7.87;;
3443;SDS011;1736;52.068;6.968;2023-08-06T01:44:48;9.40;;;7.93;;
3443;SDS011;1736;52.068;6.968;2023-08-06T01:47:15;9.50;;;7.23;;
3443;SDS011;1736;52.068;6.968;2023-08-06T01:49:42;9.97;;;8.03;;
3443;SDS011;1736;52.068;6.968;2023-08-06T01:52:08;9.83;;;8.10;;
3443;SDS011;1736;52.068;6.968;2023-08-06T01:54:36;11.97;;;9.13;;
3443;SDS011;1736;52.068;6.968;2023-08-06T01:57:03;10.00;;;7.70;;
3443;SDS011;1736;52.068;6.968;2023-08-06T01:59:30;11.90;;;8.73;;
3443;SDS011;1736;52.068;6.968;2023-08-06T02:01:56;9.57;;;7.93;;
3443;SDS011;1736;52.068;6.968;2023-08-06T02:04:23;11.60;;;8.20;;
3443;SDS011;1736;52.068;6.968;2023-08-06T02:06:50;10.53;;;8.23;;
3443;SDS011;1736;52.068;6.968;2023-08-06T02:09:17;11.00;;;9.00;;
3443;SDS011;1736;52.068;6.968;2023-08-06T02:11:45;13.03;;;8.97;;
3443;SDS011;1736;52.068;6.968;2023-08-06T02:14:11;10.53;;;8.33;;
3443;SDS011;1736;52.068;6.968;2023-08-06T02:16:38;10.50;;;7.73;;
3443;SDS011;1736;52.068;6.968;2023-08-06T02:19:04;11.40;;;8.40;;
3443;SDS011;1736;52.068;6.968;2023-08-06T02:21:31;12.03;;;8.37;;
3443;SDS011;1736;52.068;6.968;2023-08-06T02:23:58;10.90;;;8.50;;
3443;SDS011;1736;52.068;6.968;2023-08-06T02:26:24;13.90;;;9.43;;
3443;SDS011;1736;52.068;6.968;2023-08-06T02:28:52;13.50;;;9.20;;
3443;SDS011;1736;52.068;6.968;2023-08-06T02:31:19;15.63;;;8.80;;
3443;SDS011;1736;52.068;6.968;2023-08-06T02:33:45;10.73;;;8.63;;
3443;SDS011;1736;52.068;6.968;2023-08-06T02:36:12;13.40;;;9.50;;
3443;SDS011;1736;52.068;6.968;2023-08-06T02:38:39;13.03;;;9.40;;
3443;SDS011;1736;52.068;6.968;2023-08-06T02:41:05;11.93;;;9.40;;
3443;SDS011;1736;52.068;6.968;2023-08-06T02:43:32;12.50;;;9.43;;
3443;SDS011;1736;52.068;6.968;2023-08-06T02:46:00;12.40;;;9.60;;
3443;SDS011;1736;52.068;6.968;2023-08-06T02:48:27;12.43;;;9.40;;
3443;SDS011;1736;52.068;6.968;2023-08-06T02:50:56;13.37;;;9.30;;
3443;SDS011;1736;52.068;6.968;2023-08-06T02:53:24;13.87;;;10.00;;
3443;SDS011;1736;52.068;6.968;2023-08-06T02:55:51;15.27;;;9.83;;
3443;SDS011;1736;52.068;6.968;2023-08-06T02:58:17;14.37;;;10.07;;
3443;SDS011;1736;52.068;6.968;2023-08-06T03:00:47;19.30;;;12.10;;
3443;SDS011;1736;52.068;6.968;2023-08-06T03:03:27;20.50;;;12.33;;
3443;SDS011;1736;52.068;6.968;2023-08-06T03:05:54;21.57;;;11.97;;
3443;SDS011;1736;52.068;6.968;2023-08-06T03:08:21;20.80;;;12.10;;
3443;SDS011;1736;52.068;6.968;2023-08-06T03:10:48;25.87;;;12.17;;
3443;SDS011;1736;52.068;6.968;2023-08-06T03:13:14;18.20;;;12.13;;
3443;SDS011;1736;52.068;6.968;2023-08-06T03:15:41;18.60;;;12.63;;
3443;SDS011;1736;52.068;6.968;2023-08-06T03:18:09;18.10;;;12.90;;
3443;SDS011;1736;52.068;6.968;2023-08-06T03:20:36;17.73;;;11.30;;
3443;SDS011;1736;52.068;6.968;2023-08-06T03:23:02;19.13;;;12.20;;
3443;SDS011;1736;52.068;6.968;2023-08-06T03:25:29;17.07;;;12.80;;
3443;SDS011;1736;52.068;6.968;2023-08-06T03:27:55;16.60;;;12.47;;
3443;SDS011;1736;52.068;6.968;2023-08-06T03:30:22;19.47;;;12.57;;
3443;SDS011;1736;52.068;6.968;2023-08-06T03:32:48;21.93;;;13.13;;
3443;SDS011;1736;52.068;6.968;2023-08-06T03:35:16;16.00;;;11.90;;
3443;SDS011;1736;52.068;6.968;2023-08-06T03:37:43;20.80;;;13.33;;
3443;SDS011;1736;52.068;6.968;2023-08-06T03:40:10;20.60;;;13.03;;
3443;SDS011;1736;52.068;6.968;2023-08-06T03:42:37;20.43;;;12.13;;
3443;SDS011;1736;52.068;6.968;2023-08-06T03:45:04;19.20;;;13.10;;
3443;SDS011;1736;52.068;6.968;2023-08-06T03:47:31;20.00;;;12.37;;
3443;SDS011;1736;52.068;6.968;2023-08-06T03:49:57;16.40;;;11.73;;
3443;SDS011;1736;52.068;6.968;2023-08-06T03:52:26;18.50;;;12.50;;
3443;SDS011;1736;52.068;6.968;2023-08-06T03:54:52;17.40;;;12.50;;
3443;SDS011;1736;52.068;6.968;2023-08-06T03:57:19;17.90;;;12.50;;
3443;SDS011;1736;52.068;6.968;2023-08-06T03:59:45;17.47;;;12.27;;
3443;SDS011;1736;52.068;6.968;2023-08-06T04:02:12;19.97;;;13.27;;
3443;SDS011;1736;52.068;6.968;2023-08-06T04:04:39;22.07;;;13.13;;
3443;SDS011;1736;52.068;6.968;2023-08-06T04:07:05;16.63;;;11.90;;
3443;SDS011;1736;52.068;6.968;2023-08-06T04:09:33;18.53;;;12.30;;
3443;SDS011;1736;52.068;6.968;2023-08-06T04:12:01;20.50;;;13.17;;
3443;SDS011;1736;52.068;6.968;2023-08-06T04:14:29;22.50;;;13.50;;
3443;SDS011;1736;52.068;6.968;2023-08-06T04:16:56;20.27;;;13.67;;
3443;SDS011;1736;52.068;6.968;2023-08-06T04:19:23;23.00;;;12.93;;
3443;SDS011;1736;52.068;6.968;2023-08-06T04:21:50;19.73;;;12.60;;
3443;SDS011;1736;52.068;6.968;2023-08-06T04:24:16;19.43;;;13.27;;
3443;SDS011;1736;52.068;6.968;2023-08-06T04:26:44;19.03;;;13.00;;
3443;SDS011;1736;52.068;6.968;2023-08-06T04:29:11;18.43;;;12.60;;
3443;SDS011;1736;52.068;6.968;2023-08-06T04:31:37;18.63;;;13.10;;
3443;SDS011;1736;52.068;6.968;2023-08-06T04:34:04;22.07;;;13.70;;
3443;SDS011;1736;52.068;6.968;2023-08-06T04:36:31;20.63;;;13.30;;
3443;SDS011;1736;52.068;6.968;2023-08-06T04:38:57;16.03;;;11.77;;
3443;SDS011;1736;52.068;6.968;2023-08-06T04:41:24;19.33;;;12.30;;
3443;SDS011;1736;52.068;6.968;2023-08-06T04:43:52;17.87;;;12.80;;
3443;SDS011;1736;52.068;6.968;2023-08-06T04:46:18;20.47;;;13.33;;
3443;SDS011;1736;52.068;6.968;2023-08-06T04:48:45;19.67;;;12.70;;
3443;SDS011;1736;52.068;6.968;2023-08-06T04:51:11;18.37;;;12.20;;
3443;SDS011;1736;52.068;6.968;2023-08-06T04:53:40;16.90;;;12.00;;
3443;SDS011;1736;52.068;6.968;2023-08-06T04:56:07;17.60;;;11.67;;
3443;SDS011;1736;52.068;6.968;2023-08-06T04:58:33;18.60;;;11.90;;
3443;SDS011;1736;52.068;6.968;2023-08-06T05:01:01;20.43;;;13.07;;
3443;SDS011;1736;52.068;6.968;2023-08-06T05:03:28;19.20;;;12.27;;
3443;SDS011;1736;52.068;6.968;2023-08-06T05:05:55;19.00;;;12.20;;
3443;SDS011;1736;52.068;6.968;2023-08-06T05:08:21;17.23;;;11.60;;
3443;SDS011;1736;52.068;6.968;2023-08-06T05:10:48;16.80;;;11.47;;
3443;SDS011;1736;52.068;6.968;2023-08-06T05:13:14;17.50;;;12.23;;
3443;SDS011;1736;52.068;6.968;2023-08-06T05:15:41;17.10;;;11.93;;
3443;SDS011;1736;52.068;6.968;2023-08-06T05:18:11;18.40;;;12.03;;
3443;SDS011;1736;52.068;6.968;2023-08-06T05:20:39;17.87;;;13.40;;
3443;SDS011;1736;52.068;6.968;2023-08-06T05:23:07;20.33;;;13.70;;
3443;SDS011;1736;52.068;6.968;2023-08-06T05:25:34;18.57;;;12.40;;
3443;SDS011;1736;52.068;6.968;2023-08-06T05:28:01;17.00;;;10.80;;
3443;SDS011;1736;52.068;6.968;2023-08-06T05:30:28;16.67;;;11.63;;
3443;SDS011;1736;52.068;6.968;2023-08-06T05:32:54;15.90;;;10.83;;
3443;SDS011;1736;52.068;6.968;2023-08-06T05:35:23;13.87;;;9.90;;
3443;SDS011;1736;52.068;6.968;2023-08-06T05:37:50;14.83;;;9.20;;
3443;SDS011;1736;52.068;6.968;2023-08-06T05:40:16;16.30;;;11.43;;
3443;SDS011;1736;52.068;6.968;2023-08-06T05:42:43;15.37;;;9.77;;
3443;SDS011;1736;52.068;6.968;2023-08-06T05:45:10;12.97;;;9.77;;
3443;SDS011;1736;52.068;6.968;2023-08-06T05:47:36;14.17;;;9.83;;
3443;SDS011;1736;52.068;6.968;2023-08-06T05:50:03;15.37;;;9.50;;
3443;SDS011;1736;52.068;6.968;2023-08-06T05:52:32;10.60;;;8.57;;
3443;SDS011;1736;52.068;6.968;2023-08-06T05:54:58;11.53;;;8.03;;
3443;SDS011;1736;52.068;6.968;2023-08-06T05:57:25;11.50;;;9.03;;
3443;SDS011;1736;52.068;6.968;2023-08-06T05:59:51;13.90;;;8.83;;
3443;SDS011;1736;52.068;6.968;2023-08-06T06:02:18;10.10;;;8.77;;
3443;SDS011;1736;52.068;6.968;2023-08-06T06:04:44;11.17;;;9.10;;
3443;SDS011;1736;52.068;6.968;2023-08-06T06:07:11;10.70;;;8.43;;
3443;SDS011;1736;52.068;6.968;2023-08-06T06:09:40;10.13;;;7.67;;
3443;SDS011;1736;52.068;6.968;2023-08-06T06:12:07;10.57;;;8.33;;
3443;SDS011;1736;52.068;6.968;2023-08-06T06:14:33;12.33;;;8.47;;
3443;SDS011;1736;52.068;6.968;2023-08-06T06:17:00;10.70;;;8.43;;
3443;SDS011;1736;52.068;6.968;2023-08-06T06:19:27;11.80;;;7.83;;
3443;SDS011;1736;52.068;6.968;2023-08-06T06:21:53;9.03;;;8.03;;
3443;SDS011;1736;52.068;6.968;2023-08-06T06:24:22;11.20;;;8.20;;
3443;SDS011;1736;52.068;6.968;2023-08-06T06:26:50;15.03;;;8.80;;
3443;SDS011;1736;52.068;6.968;2023-08-06T06:29:17;11.10;;;8.00;;
3443;SDS011;1736;52.068;6.968;2023-08-06T06:31:43;8.83;;;7.00;;
3443;SDS011;1736;52.068;6.968;2023-08-06T06:34:10;11.43;;;7.50;;
3443;SDS011;1736;52.068;6.968;2023-08-06T06:36:37;9.77;;;7.80;;
3443;SDS011;1736;52.068;6.968;2023-08-06T06:39:03;11.87;;;7.47;;
3443;SDS011;1736;52.068;6.968;2023-08-06T06:41:30;7.70;;;6.90;;
3443;SDS011;1736;52.068;6.968;2023-08-06T06:43:59;8.67;;;7.77;;
3443;SDS011;1736;52.068;6.968;2023-08-06T06:46:26;10.77;;;7.20;;
3443;SDS011;1736;52.068;6.968;2023-08-06T06:48:52;8.60;;;7.70;;
3443;SDS011;1736;52.068;6.968;2023-08-06T06:51:19;7.40;;;6.50;;
3443;SDS011;1736;52.068;6.968;2023-08-06T06:53:46;9.73;;;7.40;;
3443;SDS011;1736;52.068;6.968;2023-08-06T06:56:12;10.27;;;7.50;;
3443;SDS011;1736;52.068;6.968;2023-08-06T06:58:40;13.10;;;7.97;;
3443;SDS011;1736;52.068;6.968;2023-08-06T07:01:09;14.63;;;7.73;;
3443;SDS011;1736;52.068;6.968;2023-08-06T07:03:36;9.97;;;7.03;;
3443;SDS011;1736;52.068;6.968;2023-08-06T07:06:03;9.33;;;7.23;;
3443;SDS011;1736;52.068;6.968;2023-08-06T07:08:31;13.83;;;9.20;;
3443;SDS011;1736;52.068;6.968;2023-08-06T07:11:01;11.87;;;7.90;;
3443;SDS011;1736;52.068;6.968;2023-08-06T07:13:28;9.60;;;6.70;;
3443;SDS011;1736;52.068;6.968;2023-08-06T07:15:55;13.83;;;6.87;;
3443;SDS011;1736;52.068;6.968;2023-08-06T07:18:23;8.60;;;6.77;;
3443;SDS011;1736;52.068;6.968;2023-08-06T07:20:50;9.30;;;7.00;;
3443;SDS011;1736;52.068;6.968;2023-08-06T07:23:17;8.93;;;7.27;;
3443;SDS011;1736;52.068;6.968;2023-08-06T07:25:45;7.73;;;6.93;;
3443;SDS011;1736;52.068;6.968;2023-08-06T07:28:12;9.90;;;6.77;;
3443;SDS011;1736;52.068;6.968;2023-08-06T07:30:39;8.30;;;6.80;;
3443;SDS011;1736;52.068;6.968;2023-08-06T07:33:06;8.17;;;7.10;;
3443;SDS011;1736;52.068;6.968;2023-08-06T07:35:34;8.00;;;6.97;;
3443;SDS011;1736;52.068;6.968;2023-08-06T07:38:02;8.57;;;7.27;;
3443;SDS011;1736;52.068;6.968;2023-08-06T07:40:32;10.37;;;6.87;;
3443;SDS011;1736;52.068;6.968;2023-08-06T07:42:58;7.73;;;6.97;;
3443;SDS011;1736;52.068;6.968;2023-08-06T07:45:25;10.97;;;6.17;;
3443;SDS011;1736;52.068;6.968;2023-08-06T07:47:53;9.70;;;6.20;;
3443;SDS011;1736;52.068;6.968;2023-08-06T07:50:20;9.57;;;6.10;;
3443;SDS011;1736;52.068;6.968;2023-08-06T07:52:48;8.47;;;7.07;;
3443;SDS011;1736;52.068;6.968;2023-08-06T07:55:14;13.73;;;6.30;;
3443;SDS011;1736;52.068;6.968;2023-08-06T07:57:41;6.73;;;6.07;;
3443;SDS011;1736;52.068;6.968;2023-08-06T08:00:08;7.37;;;6.40;;
3443;SDS011;1736;52.068;6.968;2023-08-06T08:02:35;8.37;;;6.17;;
3443;SDS011;1736;52.068;6.968;2023-08-06T08:05:02;8.50;;;6.07;;
3443;SDS011;1736;52.068;6.968;2023-08-06T08:07:28;7.27;;;5.90;;
3443;SDS011;1736;52.068;6.968;2023-08-06T08:09:57;7.90;;;6.03;;
3443;SDS011;1736;52.068;6.968;2023-08-06T08:12:23;8.50;;;6.37;;
3443;SDS011;1736;52.068;6.968;2023-08-06T08:14:50;9.17;;;6.37;;
3443;SDS011;1736;52.068;6.968;2023-08-06T08:17:17;11.50;;;6.83;;
3443;SDS011;1736;52.068;6.968;2023-08-06T08:19:43;7.20;;;6.50;;
3443;SDS011;1736;52.068;6.968;2023-08-06T08:22:10;8.03;;;6.37;;
3443;SDS011;1736;52.068;6.968;2023-08-06T08:24:37;8.70;;;6.60;;
3443;SDS011;1736;52.068;6.968;2023-08-06T08:27:05;16.20;;;6.83;;
3443;SDS011;1736;52.068;6.968;2023-08-06T08:29:32;8.10;;;5.83;;
3443;SDS011;1736;52.068;6.968;2023-08-06T08:31:58;8.03;;;6.53;;
3443;SDS011;1736;52.068;6.968;2023-08-06T08:34:25;8.83;;;6.13;;
3443;SDS011;1736;52.068;6.968;2023-08-06T08:36:52;6.33;;;5.73;;
3443;SDS011;1736;52.068;6.968;2023-08-06T08:39:19;9.20;;;5.77;;
3443;SDS011;1736;52.068;6.968;2023-08-06T08:41:46;7.77;;;6.87;;
3443;SDS011;1736;52.068;6.968;2023-08-06T08:44:14;9.40;;;6.37;;
3443;SDS011;1736;52.068;6.968;2023-08-06T08:46:42;8.50;;;6.40;;
3443;SDS011;1736;52.068;6.968;2023-08-06T08:49:10;8.70;;;6.63;;
3443;SDS011;1736;52.068;6.968;2023-08-06T08:51:37;7.80;;;6.40;;
3443;SDS011;1736;52.068;6.968;2023-08-06T08:54:04;7.20;;;6.30;;
3443;SDS011;1736;52.068;6.968;2023-08-06T08:56:33;7.80;;;6.43;;
3443;SDS011;1736;52.068;6.968;2023-08-06T08:59:00;7.67;;;6.33;;
3443;SDS011;1736;52.068;6.968;2023-08-06T09:01:28;10.70;;;6.10;;
3443;SDS011;1736;52.068;6.968;2023-08-06T09:03:55;8.40;;;6.50;;
3443;SDS011;1736;52.068;6.968;2023-08-06T09:06:23;10.33;;;6.10;;
3443;SDS011;1736;52.068;6.968;2023-08-06T09:08:54;6.63;;;5.93;;
3443;SDS011;1736;52.068;6.968;2023-08-06T09:11:27;10.03;;;6.77;;
3443;SDS011;1736;52.068;6.968;2023-08-06T09:13:56;8.70;;;6.93;;
3443;SDS011;1736;52.068;6.968;2023-08-06T09:16:23;8.30;;;7.27;;
3443;SDS011;1736;52.068;6.968;2023-08-06T09:18:51;9.60;;;6.60;;
3443;SDS011;1736;52.068;6.968;2023-08-06T09:21:18;9.23;;;7.53;;
3443;SDS011;1736;52.068;6.968;2023-08-06T09:23:45;12.93;;;6.97;;
3443;SDS011;1736;52.068;6.968;2023-08-06T09:26:11;11.13;;;6.87;;
3443;SDS011;1736;52.068;6.968;2023-08-06T09:28:39;8.10;;;6.83;;
3443;SDS011;1736;52.068;6.968;2023-08-06T09:31:08;7.40;;;6.17;;
3443;SDS011;1736;52.068;6.968;2023-08-06T09:33:35;10.50;;;6.63;;
3443;SDS011;1736;52.068;6.968;2023-08-06T09:36:10;6.83;;;6.13;;
3443;SDS011;1736;52.068;6.968;2023-08-06T09:38:38;7.67;;;5.73;;
3443;SDS011;1736;52.068;6.968;2023-08-06T09:41:06;7.07;;;5.67;;
3443;SDS011;1736;52.068;6.968;2023-08-06T09:43:39;8.00;;;5.73;;
3443;SDS011;1736;52.068;6.968;2023-08-06T09:46:10;7.50;;;5.90;;
3443;SDS011;1736;52.068;6.968;2023-08-06T09:48:39;8.30;;;5.77;;
3443;SDS011;1736;52.068;6.968;2023-08-06T09:51:06;5.73;;;4.90;;
3443;SDS011;1736;52.068;6.968;2023-08-06T09:53:36;6.80;;;5.03;;
3443;SDS011;1736;52.068;6.968;2023-08-06T09:56:03;6.03;;;5.43;;
3443;SDS011;1736;52.068;6.968;2023-08-06T09:58:31;5.30;;;4.80;;
3443;SDS011;1736;52.068;6.968;2023-08-06T10:00:59;7.43;;;5.17;;
3443;SDS011;1736;52.068;6.968;2023-08-06T10:03:27;5.40;;;4.90;;
3443;SDS011;1736;52.068;6.968;2023-08-06T10:05:56;9.27;;;5.40;;
3443;SDS011;1736;52.068;6.968;2023-08-06T10:08:24;6.73;;;4.80;;
3443;SDS011;1736;52.068;6.968;2023-08-06T10:10:52;8.80;;;5.60;;
3443;SDS011;1736;52.068;6.968;2023-08-06T10:13:18;8.77;;;4.50;;
3443;SDS011;1736;52.068;6.968;2023-08-06T10:15:48;5.70;;;4.80;;
3443;SDS011;1736;52.068;6.968;2023-08-06T10:18:16;4.67;;;4.27;;
3443;SDS011;1736;52.068;6.968;2023-08-06T10:20:46;7.77;;;4.80;;
3443;SDS011;1736;52.068;6.968;2023-08-06T10:23:13;7.93;;;4.00;;
3443;SDS011;1736;52.068;6.968;2023-08-06T10:25:40;4.73;;;4.23;;
3443;SDS011;1736;52.068;6.968;2023-08-06T10:28:11;5.53;;;4.60;;
3443;SDS011;1736;52.068;6.968;2023-08-06T10:30:42;6.50;;;4.40;;
3443;SDS011;1736;52.068;6.968;2023-08-06T10:33:10;5.97;;;4.10;;
3443;SDS011;1736;52.068;6.968;2023-08-06T10:35:37;4.47;;;4.07;;
3443;SDS011;1736;52.068;6.968;2023-08-06T10:38:09;4.53;;;4.10;;
3443;SDS011;1736;52.068;6.968;2023-08-06T10:40:36;5.50;;;4.33;;
3443;SDS011;1736;52.068;6.968;2023-08-06T10:43:05;8.33;;;5.10;;
3443;SDS011;1736;52.068;6.968;2023-08-06T10:45:35;4.90;;;4.50;;
3443;SDS011;1736;52.068;6.968;2023-08-06T10:48:03;5.47;;;4.50;;
3443;SDS011;1736;52.068;6.968;2023-08-06T10:50:30;4.50;;;3.83;;
3443;SDS011;1736;52.068;6.968;2023-08-06T10:52:58;3.73;;;3.43;;
3443;SDS011;1736;52.068;6.968;2023-08-06T10:55:30;5.20;;;4.33;;
3443;SDS011;1736;52.068;6.968;2023-08-06T10:57:57;4.43;;;4.03;;
3443;SDS011;1736;52.068;6.968;2023-08-06T11:00:24;7.77;;;3.40;;
3443;SDS011;1736;52.068;6.968;2023-08-06T11:02:53;4.17;;;3.73;;
3443;SDS011;1736;52.068;6.968;2023-08-06T11:05:20;10.03;;;3.40;;
3443;SDS011;1736;52.068;6.968;2023-08-06T11:07:48;3.50;;;3.20;;
3443;SDS011;1736;52.068;6.968;2023-08-06T11:10:16;3.50;;;2.80;;
3443;SDS011;1736;52.068;6.968;2023-08-06T11:12:43;4.70;;;3.27;;
3443;SDS011;1736;52.068;6.968;2023-08-06T11:15:10;4.27;;;2.93;;
3443;SDS011;1736;52.068;6.968;2023-08-06T11:17:37;2.43;;;2.23;;
3443;SDS011;1736;52.068;6.968;2023-08-06T11:20:08;3.50;;;2.43;;
3443;SDS011;1736;52.068;6.968;2023-08-06T11:22:35;2.80;;;2.43;;
3443;SDS011;1736;52.068;6.968;2023-08-06T11:25:04;2.90;;;2.43;;
3443;SDS011;1736;52.068;6.968;2023-08-06T11:27:31;3.67;;;2.40;;
3443;SDS011;1736;52.068;6.968;2023-08-06T11:29:58;2.50;;;2.30;;
3443;SDS011;1736;52.068;6.968;2023-08-06T11:32:25;2.20;;;2.10;;
3443;SDS011;1736;52.068;6.968;2023-08-06T11:34:52;2.40;;;2.30;;
3443;SDS011;1736;52.068;6.968;2023-08-06T11:37:22;4.00;;;2.03;;
3443;SDS011;1736;52.068;6.968;2023-08-06T11:39:50;2.40;;;2.20;;
3443;SDS011;1736;52.068;6.968;2023-08-06T11:42:17;3.07;;;2.00;;
3443;SDS011;1736;52.068;6.968;2023-08-06T11:44:44;3.40;;;1.90;;
3443;SDS011;1736;52.068;6.968;2023-08-06T11:47:14;3.40;;;2.20;;
3443;SDS011;1736;52.068;6.968;2023-08-06T11:49:42;2.33;;;1.80;;
3443;SDS011;1736;52.068;6.968;2023-08-06T11:52:11;2.20;;;1.97;;
3443;SDS011;1736;52.068;6.968;2023-08-06T11:54:42;2.47;;;2.20;;
3443;SDS011;1736;52.068;6.968;2023-08-06T11:57:08;2.73;;;2.53;;
3443;SDS011;1736;52.068;6.968;2023-08-06T11:59:35;2.90;;;2.70;;
3443;SDS011;1736;52.068;6.968;2023-08-06T12:02:03;4.43;;;3.00;;
3443;SDS011;1736;52.068;6.968;2023-08-06T12:04:31;4.20;;;1.50;;
3443;SDS011;1736;52.068;6.968;2023-08-06T12:07:17;3.23;;;1.67;;
3443;SDS011;1736;52.068;6.968;2023-08-06T12:09:45;1.90;;;1.67;;
3443;SDS011;1736;52.068;6.968;2023-08-06T12:12:11;4.03;;;2.30;;
3443;SDS011;1736;52.068;6.968;2023-08-06T12:14:38;2.23;;;2.10;;
3443;SDS011;1736;52.068;6.968;2023-08-06T12:17:05;2.60;;;2.40;;
3443;SDS011;1736;52.068;6.968;2023-08-06T12:19:31;3.07;;;2.70;;
3443;SDS011;1736;52.068;6.968;2023-08-06T12:21:58;3.10;;;2.83;;
3443;SDS011;1736;52.068;6.968;2023-08-06T12:24:25;4.30;;;3.33;;
3443;SDS011;1736;52.068;6.968;2023-08-06T12:26:58;2.80;;;2.60;;
3443;SDS011;1736;52.068;6.968;2023-08-06T12:29:24;3.53;;;3.23;;
3443;SDS011;1736;52.068;6.968;2023-08-06T12:31:51;3.93;;;3.57;;
3443;SDS011;1736;52.068;6.968;2023-08-06T12:34:21;4.30;;;3.90;;
3443;SDS011;1736;52.068;6.968;2023-08-06T12:36:48;4.77;;;3.67;;
3443;SDS011;1736;52.068;6.968;2023-08-06T12:39:15;5.07;;;3.90;;
3443;SDS011;1736;52.068;6.968;2023-08-06T12:41:41;4.30;;;3.30;;
3443;SDS011;1736;52.068;6.968;2023-08-06T12:44:12;4.43;;;4.10;;
3443;SDS011;1736;52.068;6.968;2023-08-06T12:46:39;7.70;;;3.73;;
3443;SDS011;1736;52.068;6.968;2023-08-06T12:49:06;3.50;;;3.30;;
3443;SDS011;1736;52.068;6.968;2023-08-06T12:51:34;6.80;;;4.30;;
3443;SDS011;1736;52.068;6.968;2023-08-06T12:54:00;4.00;;;3.50;;
3443;SDS011;1736;52.068;6.968;2023-08-06T12:56:27;3.80;;;3.50;;
3443;SDS011;1736;52.068;6.968;2023-08-06T12:58:54;4.27;;;3.87;;
3443;SDS011;1736;52.068;6.968;2023-08-06T13:01:22;3.60;;;3.30;;
3443;SDS011;1736;52.068;6.968;2023-08-06T13:03:48;3.60;;;3.30;;
3443;SDS011;1736;52.068;6.968;2023-08-06T13:06:15;4.53;;;3.40;;
3443;SDS011;1736;52.068;6.968;2023-08-06T13:08:42;4.80;;;4.17;;
3443;SDS011;1736;52.068;6.968;2023-08-06T13:11:08;5.87;;;4.90;;
3443;SDS011;1736;52.068;6.968;2023-08-06T13:13:35;4.80;;;4.20;;
3443;SDS011;1736;52.068;6.968;2023-08-06T13:16:02;6.10;;;4.90;;
3443;SDS011;1736;52.068;6.968;2023-08-06T13:18:31;5.47;;;4.70;;
3443;SDS011;1736;52.068;6.968;2023-08-06T13:20:57;5.93;;;4.90;;
3443;SDS011;1736;52.068;6.968;2023-08-06T13:23:24;7.03;;;5.30;;
3443;SDS011;1736;52.068;6.968;2023-08-06T13:25:51;8.50;;;5.73;;
3443;SDS011;1736;52.068;6.968;2023-08-06T13:28:17;5.80;;;5.30;;
3443;SDS011;1736;52.068;6.968;2023-08-06T13:30:44;6.73;;;5.73;;
3443;SDS011;1736;52.068;6.968;2023-08-06T13:33:11;6.77;;;5.23;;
3443;SDS011;1736;52.068;6.968;2023-08-06T13:35:39;7.13;;;5.50;;
3443;SDS011;1736;52.068;6.968;2023-08-06T13:38:06;8.97;;;6.67;;
3443;SDS011;1736;52.068;6.968;2023-08-06T13:40:33;8.90;;;7.47;;
3443;SDS011;1736;52.068;6.968;2023-08-06T13:43:01;7.40;;;6.70;;
3443;SDS011;1736;52.068;6.968;2023-08-06T13:45:28;10.03;;;7.60;;
3443;SDS011;1736;52.068;6.968;2023-08-06T13:47:56;10.90;;;8.50;;
3443;SDS011;1736;52.068;6.968;2023-08-06T13:50:23;10.90;;;8.83;;
3443;SDS011;1736;52.068;6.968;2023-08-06T13:52:52;8.83;;;7.93;;
3443;SDS011;1736;52.068;6.968;2023-08-06T13:55:20;7.67;;;6.60;;
3443;SDS011;1736;52.068;6.968;2023-08-06T13:57:47;7.70;;;5.97;;
3443;SDS011;1736;52.068;6.968;2023-08-06T14:00:14;5.80;;;5.20;;
3443;SDS011;1736;52.068;6.968;2023-08-06T14:02:41;5.20;;;4.47;;
3443;SDS011;1736;52.068;6.968;2023-08-06T14:05:08;5.90;;;4.43;;
3443;SDS011;1736;52.068;6.968;2023-08-06T14:07:35;4.63;;;4.17;;
3443;SDS011;1736;52.068;6.968;2023-08-06T14:10:04;5.30;;;4.80;;
3443;SDS011;1736;52.068;6.968;2023-08-06T14:12:31;4.10;;;3.80;;
3443;SDS011;1736;52.068;6.968;2023-08-06T14:14:58;4.00;;;3.70;;
3443;SDS011;1736;52.068;6.968;2023-08-06T14:17:25;4.57;;;3.90;;
3443;SDS011;1736;52.068;6.968;2023-08-06T14:19:52;3.20;;;3.00;;
3443;SDS011;1736;52.068;6.968;2023-08-06T14:22:18;3.00;;;2.80;;
3443;SDS011;1736;52.068;6.968;2023-08-06T14:24:45;3.30;;;3.10;;
3443;SDS011;1736;52.068;6.968;2023-08-06T14:27:13;2.80;;;2.60;;
3443;SDS011;1736;52.068;6.968;2023-08-06T14:29:40;2.80;;;2.60;;
3443;SDS011;1736;52.068;6.968;2023-08-06T14:32:06;8.60;;;2.80;;
3443;SDS011;1736;52.068;6.968;2023-08-06T14:34:33;2.30;;;2.10;;
3443;SDS011;1736;52.068;6.968;2023-08-06T14:37:00;2.60;;;2.40;;
3443;SDS011;1736;52.068;6.968;2023-08-06T14:39:27;2.37;;;2.27;;
3443;SDS011;1736;52.068;6.968;2023-08-06T14:41:53;2.13;;;2.03;;
3443;SDS011;1736;52.068;6.968;2023-08-06T14:44:22;3.00;;;2.70;;
3443;SDS011;1736;52.068;6.968;2023-08-06T14:46:48;2.87;;;2.50;;
3443;SDS011;1736;52.068;6.968;2023-08-06T14:49:15;2.80;;;2.60;;
3443;SDS011;1736;52.068;6.968;2023-08-06T14:51:42;2.10;;;2.00;;
3443;SDS011;1736;52.068;6.968;2023-08-06T14:54:08;2.40;;;2.30;;
3443;SDS011;1736;52.068;6.968;2023-08-06T14:56:35;2.50;;;2.40;;
3443;SDS011;1736;52.068;6.968;2023-08-06T14:59:02;2.57;;;2.37;;
3443;SDS011;1736;52.068;6.968;2023-08-06T15:01:30;2.73;;;2.50;;
3443;SDS011;1736;52.068;6.968;2023-08-06T15:03:57;4.10;;;2.80;;
3443;SDS011;1736;52.068;6.968;2023-08-06T15:06:24;2.80;;;2.60;;